N523VG KGGG-KGLS
Flight info
| Callsign | N523VG |
|---|---|
| Flight time | N/A |
| Altitude | 21000 |
| Route | CESAN BOBLE |
| Aircraft | VIPJ/L-VGDW/C |
Departure
| Time | 2026-04-16 06:09 |
|---|---|
| Airport | East Texas Regional Airport (KGGG) |
Arrival
| Time | N/A |
|---|---|
| Airport | Scholes International At Galveston Airport (KGLS) |
| Time | Latitude | Longitude | Altitude | Speed | Heading |
|---|---|---|---|---|---|
| 2026-04-16 06:09 | 32.33422 | -94.71103 | 5978 ft | 168 kts | 171° |
| 2026-04-16 06:09 | 32.32346 | -94.70725 | 7121 ft | 168 kts | 169° |
| 2026-04-16 06:10 | 32.31273 | -94.70319 | 8154 ft | 170 kts | 166° |
| 2026-04-16 06:10 | 32.30142 | -94.69831 | 9034 ft | 180 kts | 165° |
| 2026-04-16 06:10 | 32.29000 | -94.69264 | 9984 ft | 183 kts | 162° |
| 2026-04-16 06:10 | 32.27878 | -94.68611 | 10960 ft | 184 kts | 159° |
| 2026-04-16 06:11 | 32.26720 | -94.67930 | 11734 ft | 193 kts | 162° |
| 2026-04-16 06:11 | 32.25536 | -94.67284 | 12597 ft | 186 kts | 165° |
| 2026-04-16 06:11 | 32.24374 | -94.66682 | 13248 ft | 184 kts | 164° |
| 2026-04-16 06:11 | 32.23209 | -94.66032 | 13785 ft | 189 kts | 162° |
| 2026-04-16 06:12 | 32.22015 | -94.65367 | 14266 ft | 192 kts | 165° |
| 2026-04-16 06:12 | 32.20850 | -94.64781 | 15031 ft | 178 kts | 166° |
| 2026-04-16 06:12 | 32.19657 | -94.64248 | 15278 ft | 194 kts | 168° |
| 2026-04-16 06:12 | 32.18358 | -94.63684 | 15750 ft | 198 kts | 166° |
| 2026-04-16 06:13 | 32.17097 | -94.63144 | 16291 ft | 194 kts | 175° |
| 2026-04-16 06:13 | 32.15744 | -94.63042 | 16564 ft | 196 kts | 197° |
| 2026-04-16 06:13 | 32.14451 | -94.63510 | 17060 ft | 194 kts | 196° |
| 2026-04-16 06:13 | 32.13089 | -94.63551 | 17569 ft | 195 kts | 189° |
| 2026-04-16 06:14 | 32.11678 | -94.63634 | 17621 ft | 220 kts | 185° |
| 2026-04-16 06:14 | 32.10059 | -94.63500 | 17779 ft | 236 kts | 180° |
| 2026-04-16 06:14 | 32.08398 | -94.63248 | 18036 ft | 246 kts | 178° |
| 2026-04-16 06:14 | 32.06706 | -94.62936 | 18443 ft | 247 kts | 177° |
| 2026-04-16 06:15 | 32.05045 | -94.62566 | 19026 ft | 242 kts | 174° |
| 2026-04-16 06:15 | 32.03420 | -94.62039 | 19482 ft | 244 kts | 169° |
| 2026-04-16 06:15 | 32.01800 | -94.61396 | 19862 ft | 247 kts | 167° |
| 2026-04-16 06:15 | 32.00207 | -94.60671 | 20284 ft | 247 kts | 165° |
| 2026-04-16 06:16 | 31.98615 | -94.59911 | 20670 ft | 249 kts | 165° |
| 2026-04-16 06:16 | 31.96991 | -94.59101 | 20948 ft | 254 kts | 165° |
| 2026-04-16 06:16 | 31.95355 | -94.58337 | 21323 ft | 254 kts | 166° |
| 2026-04-16 06:16 | 31.93710 | -94.57570 | 21759 ft | 252 kts | 167° |
| 2026-04-16 06:17 | 31.92064 | -94.56943 | 22005 ft | 254 kts | 172° |
| 2026-04-16 06:17 | 31.90356 | -94.56363 | 22363 ft | 254 kts | 171° |
| 2026-04-16 06:17 | 31.88664 | -94.55821 | 22811 ft | 248 kts | 174° |
| 2026-04-16 06:17 | 31.86985 | -94.55352 | 23131 ft | 250 kts | 174° |
| 2026-04-16 06:18 | 31.85271 | -94.54914 | 23362 ft | 253 kts | 176° |
| 2026-04-16 06:18 | 31.83547 | -94.54598 | 23747 ft | 250 kts | 177° |
| 2026-04-16 06:18 | 31.81835 | -94.54308 | 24119 ft | 248 kts | 179° |
| 2026-04-16 06:18 | 31.80123 | -94.54115 | 24380 ft | 249 kts | 181° |
| 2026-04-16 06:19 | 31.78387 | -94.53899 | 24616 ft | 253 kts | 178° |
| 2026-04-16 06:19 | 31.76645 | -94.53715 | 24919 ft | 251 kts | 181° |
| 2026-04-16 06:19 | 31.74914 | -94.53326 | 25269 ft | 254 kts | 172° |
| 2026-04-16 06:19 | 31.73219 | -94.52822 | 25699 ft | 247 kts | 173° |
| 2026-04-16 06:20 | 31.71547 | -94.52415 | 25955 ft | 248 kts | 175° |
| 2026-04-16 06:20 | 31.69830 | -94.51977 | 26120 ft | 253 kts | 172° |
| 2026-04-16 06:20 | 31.68128 | -94.51462 | 26392 ft | 254 kts | 171° |
| 2026-04-16 06:20 | 31.66441 | -94.50896 | 26711 ft | 252 kts | 169° |
| 2026-04-16 06:21 | 31.64775 | -94.50228 | 26960 ft | 255 kts | 166° |
| 2026-04-16 06:21 | 31.63062 | -94.49484 | 26756 ft | 272 kts | 165° |
| 2026-04-16 06:21 | 31.61222 | -94.48888 | 26711 ft | 276 kts | 170° |
| 2026-04-16 06:21 | 31.59407 | -94.48336 | 27122 ft | 266 kts | 174° |
| 2026-04-16 06:22 | 31.57530 | -94.48405 | 26308 ft | 294 kts | 191° |
| 2026-04-16 06:22 | 31.55692 | -94.49264 | 26595 ft | 274 kts | 221° |
| 2026-04-16 06:22 | 31.54577 | -94.50881 | 27638 ft | 244 kts | 230° |
| 2026-04-16 06:22 | 31.54075 | -94.52783 | 27045 ft | 295 kts | 272° |
| 2026-04-16 06:23 | 31.53523 | -94.54930 | 23426 ft | 348 kts | 227° |
| 2026-04-16 06:23 | 31.52534 | -94.56702 | 26161 ft | 246 kts | 221° |
| 2026-04-16 06:23 | 31.51696 | -94.58470 | 25981 ft | 257 kts | 265° |
| 2026-04-16 06:23 | 31.51966 | -94.60247 | 27316 ft | 196 kts | 285° |
| 2026-04-16 06:24 | 31.52530 | -94.61460 | 27779 ft | 194 kts | 283° |
| 2026-04-16 06:24 | 31.53148 | -94.63018 | 24819 ft | 338 kts | 322° |
| 2026-04-16 06:24 | 31.54063 | -94.64821 | 26076 ft | 223 kts | 276° |
| 2026-04-16 06:24 | 31.54374 | -94.66473 | 25144 ft | 277 kts | 281° |
| 2026-04-16 06:25 | 31.55415 | -94.68487 | 24583 ft | 288 kts | 295° |
| 2026-04-16 06:25 | 31.56351 | -94.70254 | 25843 ft | 251 kts | 292° |
| 2026-04-16 06:25 | 31.57252 | -94.72127 | 25120 ft | 287 kts | 284° |
| 2026-04-16 06:25 | 31.57052 | -94.74393 | 24262 ft | 290 kts | 237° |
| 2026-04-16 06:26 | 31.55910 | -94.76015 | 25322 ft | 234 kts | 219° |
| 2026-04-16 06:26 | 31.54578 | -94.76976 | 25044 ft | 235 kts | 208° |
| 2026-04-16 06:26 | 31.53043 | -94.77929 | 23580 ft | 269 kts | 220° |
| 2026-04-16 06:26 | 31.51961 | -94.79636 | 23489 ft | 244 kts | 238° |
| 2026-04-16 06:27 | 31.51167 | -94.81040 | 24504 ft | 186 kts | 228° |
| 2026-04-16 06:27 | 31.50116 | -94.82036 | 23483 ft | 227 kts | 214° |
| 2026-04-16 06:27 | 31.49250 | -94.83527 | 22702 ft | 235 kts | 263° |
| 2026-04-16 06:27 | 31.49914 | -94.85166 | 22850 ft | 237 kts | 315° |
| 2026-04-16 06:28 | 31.51533 | -94.85826 | 22550 ft | 258 kts | 347° |
| 2026-04-16 06:28 | 31.53422 | -94.85626 | 21435 ft | 307 kts | 13° |
| 2026-04-16 06:28 | 31.55307 | -94.84251 | 20343 ft | 333 kts | 45° |
| 2026-04-16 06:28 | 31.56221 | -94.82008 | 20698 ft | 294 kts | 87° |
| 2026-04-16 06:29 | 31.56060 | -94.79694 | 20470 ft | 280 kts | 113° |
| 2026-04-16 06:29 | 31.55252 | -94.77670 | 20193 ft | 266 kts | 131° |
| 2026-04-16 06:29 | 31.54075 | -94.76193 | 20222 ft | 239 kts | 152° |
| 2026-04-16 06:29 | 31.52589 | -94.75391 | 19746 ft | 233 kts | 179° |
| 2026-04-16 06:30 | 31.51019 | -94.75636 | 19104 ft | 232 kts | 207° |
| 2026-04-16 06:30 | 31.49734 | -94.76671 | 18826 ft | 219 kts | 229° |
| 2026-04-16 06:30 | 31.48998 | -94.78178 | 18428 ft | 215 kts | 249° |
| 2026-04-16 06:30 | 31.48812 | -94.79915 | 17823 ft | 224 kts | 271° |
| 2026-04-16 06:31 | 31.49264 | -94.81677 | 17321 ft | 232 kts | 295° |
| 2026-04-16 06:31 | 31.50479 | -94.82954 | 16714 ft | 252 kts | 327° |
| 2026-04-16 06:31 | 31.52260 | -94.83307 | 16077 ft | 271 kts | 1° |
| 2026-04-16 06:31 | 31.54008 | -94.82470 | 15664 ft | 275 kts | 34° |
| 2026-04-16 06:32 | 31.55081 | -94.80654 | 14931 ft | 285 kts | 79° |
| 2026-04-16 06:32 | 31.54765 | -94.78373 | 13035 ft | 317 kts | 112° |
| 2026-04-16 06:32 | 31.53829 | -94.76073 | 10744 ft | 332 kts | 130° |
| 2026-04-16 06:32 | 31.52292 | -94.74275 | 10119 ft | 287 kts | 143° |
| 2026-04-16 06:33 | 31.50805 | -94.72901 | 8937 ft | 283 kts | 148° |
| 2026-04-16 06:33 | 31.49200 | -94.71790 | 8601 ft | 236 kts | 154° |
| 2026-04-16 06:33 | 31.48237 | -94.70602 | 8656 ft | 219 kts | 115° |
| 2026-04-16 06:33 | 31.48032 | -94.69096 | 3554 ft | 338 kts | 181° |
| 2026-04-16 06:34 | 31.47649 | -94.70804 | 3993 ft | 184 kts | 253° |
| 2026-04-16 06:34 | 31.47693 | -94.72210 | 3260 ft | 207 kts | 277° |
| 2026-04-16 06:34 | 31.48428 | -94.73621 | 2943 ft | 196 kts | 315° |
| 2026-04-16 06:34 | 31.49600 | -94.74415 | 2288 ft | 214 kts | 339° |
| 2026-04-16 06:35 | 31.51073 | -94.74503 | 1817 ft | 199 kts | 10° |
| 2026-04-16 06:35 | 31.52341 | -94.74044 | 1414 ft | 192 kts | 34° |
| 2026-04-16 06:35 | 31.53298 | -94.73080 | 1167 ft | 172 kts | 55° |
| 2026-04-16 06:35 | 31.54026 | -94.72062 | 1038 ft | 156 kts | 51° |
| 2026-04-16 06:36 | 31.54811 | -94.71298 | 934 ft | 143 kts | 34° |
| 2026-04-16 06:36 | 31.55671 | -94.70757 | 750 ft | 138 kts | 28° |
| 2026-04-16 06:36 | 31.56591 | -94.70617 | 551 ft | 128 kts | 335° |
| 2026-04-16 06:36 | 31.57287 | -94.71115 | 367 ft | 105 kts | 353° |
| 2026-04-16 06:37 | 31.58062 | -94.71085 | 518 ft | 128 kts | 8° |
| 2026-04-16 06:37 | 31.59012 | -94.70894 | 894 ft | 155 kts | 15° |
| 2026-04-16 06:37 | 31.60142 | -94.70634 | 997 ft | 167 kts | 352° |
| 2026-04-16 06:37 | 31.60859 | -94.71316 | 1516 ft | 145 kts | 272° |
| 2026-04-16 06:38 | 31.60458 | -94.72515 | 1095 ft | 179 kts | 225° |
| 2026-04-16 06:38 | 31.59518 | -94.73569 | 805 ft | 199 kts | 216° |
| 2026-04-16 06:38 | 31.58383 | -94.74494 | 940 ft | 191 kts | 211° |
| 2026-04-16 06:38 | 31.57308 | -94.75314 | 872 ft | 180 kts | 209° |
| 2026-04-16 06:39 | 31.56241 | -94.76046 | 782 ft | 174 kts | 209° |
| 2026-04-16 06:39 | 31.55203 | -94.76699 | 842 ft | 170 kts | 201° |
| 2026-04-16 06:39 | 31.54170 | -94.77246 | 1100 ft | 159 kts | 202° |
| 2026-04-16 06:39 | 31.53160 | -94.77867 | 1079 ft | 169 kts | 207° |
| 2026-04-16 06:40 | 31.52173 | -94.78699 | 982 ft | 178 kts | 219° |
| 2026-04-16 06:40 | 31.51384 | -94.79906 | 672 ft | 192 kts | 228° |
| 2026-04-16 06:40 | 31.50371 | -94.80514 | 1055 ft | 162 kts | 175° |
| 2026-04-16 06:40 | 31.49443 | -94.79841 | 1188 ft | 159 kts | 122° |
| 2026-04-16 06:41 | 31.49203 | -94.78562 | 1182 ft | 174 kts | 89° |
| 2026-04-16 06:41 | 31.49401 | -94.77154 | 1262 ft | 171 kts | 86° |
| 2026-04-16 06:41 | 31.49652 | -94.75771 | 1279 ft | 181 kts | 81° |
| 2026-04-16 06:41 | 31.49958 | -94.74352 | 1351 ft | 176 kts | 76° |
| 2026-04-16 06:42 | 31.50374 | -94.72941 | 1144 ft | 192 kts | 75° |
| 2026-04-16 06:42 | 31.50909 | -94.71563 | 1356 ft | 180 kts | 60° |
| 2026-04-16 06:42 | 31.51835 | -94.70548 | 1198 ft | 191 kts | 33° |
| 2026-04-16 06:42 | 31.52998 | -94.69852 | 1190 ft | 180 kts | 32° |
| 2026-04-16 06:43 | 31.54109 | -94.69153 | 991 ft | 189 kts | 27° |
| 2026-04-16 06:43 | 31.55336 | -94.68628 | 963 ft | 182 kts | 16° |
| 2026-04-16 06:43 | 31.56531 | -94.68575 | 1154 ft | 158 kts | 318° |
| 2026-04-16 06:43 | 31.56766 | -94.69633 | 1214 ft | 146 kts | 249° |
| 2026-04-16 06:44 | 31.56091 | -94.70609 | 843 ft | 160 kts | 202° |
| 2026-04-16 06:44 | 31.55842 | -94.71508 | 830 ft | 139 kts | 326° |
| 2026-04-16 06:44 | 31.56645 | -94.71553 | 858 ft | 137 kts | 37° |
| 2026-04-16 06:44 | 31.57442 | -94.70995 | 428 ft | 126 kts | 21° |
| 2026-04-16 06:45 | 31.58178 | -94.70844 | 342 ft | 82 kts | 359° |
| 2026-04-16 06:45 | 31.58405 | -94.70795 | 344 ft | 0 kts | 346° |
| 2026-04-16 06:45 | 31.58434 | -94.70823 | 343 ft | 5 kts | 313° |
| 2026-04-16 06:45 | 31.58456 | -94.70909 | 339 ft | 5 kts | 265° |
| 2026-04-16 06:46 | 31.58416 | -94.70951 | 337 ft | 11 kts | 188° |
| 2026-04-16 06:46 | 31.58323 | -94.70962 | 335 ft | 15 kts | 184° |
| 2026-04-16 06:46 | 31.58210 | -94.70977 | 336 ft | 17 kts | 187° |
| 2026-04-16 06:46 | 31.58087 | -94.70991 | 336 ft | 18 kts | 183° |
| 2026-04-16 06:47 | 31.58025 | -94.70994 | 336 ft | 6 kts | 170° |
| 2026-04-16 06:47 | 31.57995 | -94.70960 | 338 ft | 6 kts | 110° |
| 2026-04-16 06:47 | 31.57991 | -94.70911 | 339 ft | 5 kts | 95° |
| 2026-04-16 06:47 | 31.57975 | -94.70874 | 341 ft | 5 kts | 165° |
| 2026-04-16 06:48 | 31.57930 | -94.70872 | 341 ft | 7 kts | 182° |
| 2026-04-16 06:48 | 31.57866 | -94.70873 | 341 ft | 10 kts | 158° |
| 2026-04-16 06:48 | 31.57846 | -94.70800 | 343 ft | 10 kts | 89° |
| 2026-04-16 06:48 | 31.57868 | -94.70718 | 345 ft | 11 kts | 73° |
| 2026-04-16 06:49 | 31.57877 | -94.70692 | 345 ft | 5 kts | 62° |
| 2026-04-16 06:49 | 31.57899 | -94.70618 | 346 ft | 13 kts | 76° |
| 2026-04-16 06:49 | 31.57910 | -94.70550 | 348 ft | 2 kts | 73° |
| 2026-04-16 06:49 | 31.57914 | -94.70538 | 348 ft | 0 kts | 64° |
| 2026-04-16 06:50 | 31.57915 | -94.70535 | 348 ft | 0 kts | 64° |
| 2026-04-16 06:50 | 31.57916 | -94.70534 | 348 ft | 0 kts | 63° |
| 2026-04-16 06:50 | 31.57928 | -94.70503 | 349 ft | 7 kts | 76° |
| 2026-04-16 06:50 | 31.57936 | -94.70453 | 349 ft | 2 kts | 26° |
| 2026-04-16 06:51 | 31.57944 | -94.70451 | 349 ft | 0 kts | 359° |